sensor_id;sensor_type;location;lat;lon;timestamp;temperature;humidity
3418;DHT22;1722;51.316;12.370;2022-09-20T00:01:28;10.90;97.10
3418;DHT22;1722;51.316;12.370;2022-09-20T00:03:58;10.90;97.00
3418;DHT22;1722;51.316;12.370;2022-09-20T00:06:28;11.00;96.80
3418;DHT22;1722;51.316;12.370;2022-09-20T00:08:57;10.90;96.40
3418;DHT22;1722;51.316;12.370;2022-09-20T00:11:28;11.00;96.90
3418;DHT22;1722;51.316;12.370;2022-09-20T00:13:57;11.10;96.40
3418;DHT22;1722;51.316;12.370;2022-09-20T00:16:27;11.00;96.20
3418;DHT22;1722;51.316;12.370;2022-09-20T00:18:56;11.00;96.20
3418;DHT22;1722;51.316;12.370;2022-09-20T00:21:25;11.00;96.20
3418;DHT22;1722;51.316;12.370;2022-09-20T00:23:53;11.00;96.20
3418;DHT22;1722;51.316;12.370;2022-09-20T00:26:23;11.00;96.20
3418;DHT22;1722;51.316;12.370;2022-09-20T00:28:51;11.00;96.20
3418;DHT22;1722;51.316;12.370;2022-09-20T00:31:19;11.10;95.90
3418;DHT22;1722;51.316;12.370;2022-09-20T00:33:46;11.20;95.90
3418;DHT22;1722;51.316;12.370;2022-09-20T00:36:31;11.20;95.90
3418;DHT22;1722;51.316;12.370;2022-09-20T00:39:00;11.20;95.90
3418;DHT22;1722;51.316;12.370;2022-09-20T00:41:31;11.20;96.10
3418;DHT22;1722;51.316;12.370;2022-09-20T00:43:59;11.20;96.00
3418;DHT22;1722;51.316;12.370;2022-09-20T00:46:31;11.20;95.90
3418;DHT22;1722;51.316;12.370;2022-09-20T00:49:06;11.30;95.90
3418;DHT22;1722;51.316;12.370;2022-09-20T00:51:40;11.30;96.00
3418;DHT22;1722;51.316;12.370;2022-09-20T00:54:10;11.30;96.10
3418;DHT22;1722;51.316;12.370;2022-09-20T00:56:41;11.30;96.10
3418;DHT22;1722;51.316;12.370;2022-09-20T00:59:14;11.30;96.10
3418;DHT22;1722;51.316;12.370;2022-09-20T01:01:43;11.20;96.30
3418;DHT22;1722;51.316;12.370;2022-09-20T01:04:11;11.10;96.40
3418;DHT22;1722;51.316;12.370;2022-09-20T01:06:42;11.10;96.50
3418;DHT22;1722;51.316;12.370;2022-09-20T01:09:10;11.20;96.80
3418;DHT22;1722;51.316;12.370;2022-09-20T01:11:40;11.10;96.90
3418;DHT22;1722;51.316;12.370;2022-09-20T01:14:08;11.10;97.10
3418;DHT22;1722;51.316;12.370;2022-09-20T01:16:36;11.10;97.10
3418;DHT22;1722;51.316;12.370;2022-09-20T01:19:11;11.10;97.20
3418;DHT22;1722;51.316;12.370;2022-09-20T01:21:41;11.10;97.30
3418;DHT22;1722;51.316;12.370;2022-09-20T01:24:17;11.10;97.40
3418;DHT22;1722;51.316;12.370;2022-09-20T01:27:07;11.10;97.30
3418;DHT22;1722;51.316;12.370;2022-09-20T01:29:45;11.20;97.20
3418;DHT22;1722;51.316;12.370;2022-09-20T01:32:19;11.30;97.10
3418;DHT22;1722;51.316;12.370;2022-09-20T01:34:52;11.20;97.20
3418;DHT22;1722;51.316;12.370;2022-09-20T01:37:24;11.30;97.10
3418;DHT22;1722;51.316;12.370;2022-09-20T01:39:59;11.30;97.10
3418;DHT22;1722;51.316;12.370;2022-09-20T01:42:32;11.30;97.20
3418;DHT22;1722;51.316;12.370;2022-09-20T01:45:12;11.20;97.30
3418;DHT22;1722;51.316;12.370;2022-09-20T01:47:46;11.20;97.50
3418;DHT22;1722;51.316;12.370;2022-09-20T01:50:24;11.20;97.60
3418;DHT22;1722;51.316;12.370;2022-09-20T01:53:25;11.20;97.50
3418;DHT22;1722;51.316;12.370;2022-09-20T01:56:09;11.20;97.60
3418;DHT22;1722;51.316;12.370;2022-09-20T01:59:07;11.20;97.50
3418;DHT22;1722;51.316;12.370;2022-09-20T02:02:05;11.30;97.30
3418;DHT22;1722;51.316;12.370;2022-09-20T02:07:47;11.20;97.40
3418;DHT22;1722;51.316;12.370;2022-09-20T02:10:34;11.20;97.20
3418;DHT22;1722;51.316;12.370;2022-09-20T02:13:10;11.10;97.20
3418;DHT22;1722;51.316;12.370;2022-09-20T02:15:57;11.10;97.20
3418;DHT22;1722;51.316;12.370;2022-09-20T02:18:42;11.10;97.30
3418;DHT22;1722;51.316;12.370;2022-09-20T02:21:22;11.10;97.00
3418;DHT22;1722;51.316;12.370;2022-09-20T02:24:02;11.00;97.10
3418;DHT22;1722;51.316;12.370;2022-09-20T02:26:40;11.00;97.40
3418;DHT22;1722;51.316;12.370;2022-09-20T02:29:20;11.00;97.30
3418;DHT22;1722;51.316;12.370;2022-09-20T02:32:04;11.00;97.40
3418;DHT22;1722;51.316;12.370;2022-09-20T02:34:53;11.00;97.50
3418;DHT22;1722;51.316;12.370;2022-09-20T02:37:54;11.00;97.20
3418;DHT22;1722;51.316;12.370;2022-09-20T02:40:38;11.10;97.10
3418;DHT22;1722;51.316;12.370;2022-09-20T02:43:13;11.00;97.30
3418;DHT22;1722;51.316;12.370;2022-09-20T02:45:45;11.00;97.20
3418;DHT22;1722;51.316;12.370;2022-09-20T02:48:18;11.10;97.20
3418;DHT22;1722;51.316;12.370;2022-09-20T02:50:55;11.10;97.10
3418;DHT22;1722;51.316;12.370;2022-09-20T02:53:34;11.10;96.50
3418;DHT22;1722;51.316;12.370;2022-09-20T02:56:10;11.00;96.80
3418;DHT22;1722;51.316;12.370;2022-09-20T02:58:48;10.90;97.00
3418;DHT22;1722;51.316;12.370;2022-09-20T03:01:30;10.90;96.90
3418;DHT22;1722;51.316;12.370;2022-09-20T03:04:10;10.90;96.50
3418;DHT22;1722;51.316;12.370;2022-09-20T03:06:49;10.80;97.00
3418;DHT22;1722;51.316;12.370;2022-09-20T03:09:28;10.90;96.90
3418;DHT22;1722;51.316;12.370;2022-09-20T03:12:05;10.90;96.90
3418;DHT22;1722;51.316;12.370;2022-09-20T03:14:39;10.90;96.70
3418;DHT22;1722;51.316;12.370;2022-09-20T03:17:17;10.80;96.80
3418;DHT22;1722;51.316;12.370;2022-09-20T03:20:03;10.70;96.80
3418;DHT22;1722;51.316;12.370;2022-09-20T03:22:44;10.70;96.80
3418;DHT22;1722;51.316;12.370;2022-09-20T03:25:36;10.70;96.90
3418;DHT22;1722;51.316;12.370;2022-09-20T03:28:35;10.70;96.90
3418;DHT22;1722;51.316;12.370;2022-09-20T03:31:14;10.70;96.60
3418;DHT22;1722;51.316;12.370;2022-09-20T03:33:50;10.60;96.60
3418;DHT22;1722;51.316;12.370;2022-09-20T03:39:36;10.60;96.80
3418;DHT22;1722;51.316;12.370;2022-09-20T03:42:13;10.70;96.60
3418;DHT22;1722;51.316;12.370;2022-09-20T03:45:05;10.60;96.60
3418;DHT22;1722;51.316;12.370;2022-09-20T03:48:15;10.60;96.60
3418;DHT22;1722;51.316;12.370;2022-09-20T03:51:02;10.50;96.90
3418;DHT22;1722;51.316;12.370;2022-09-20T03:59:51;10.50;97.00
3418;DHT22;1722;51.316;12.370;2022-09-20T04:02:35;10.40;97.20
3418;DHT22;1722;51.316;12.370;2022-09-20T04:05:08;10.40;97.30
3418;DHT22;1722;51.316;12.370;2022-09-20T04:07:46;10.40;97.30
3418;DHT22;1722;51.316;12.370;2022-09-20T04:10:27;10.30;97.30
3418;DHT22;1722;51.316;12.370;2022-09-20T04:13:11;10.40;97.30
3418;DHT22;1722;51.316;12.370;2022-09-20T04:15:51;10.30;97.50
3418;DHT22;1722;51.316;12.370;2022-09-20T04:18:29;10.40;97.60
3418;DHT22;1722;51.316;12.370;2022-09-20T04:21:03;10.30;97.70
3418;DHT22;1722;51.316;12.370;2022-09-20T04:23:41;10.20;98.40
3418;DHT22;1722;51.316;12.370;2022-09-20T04:26:11;10.10;98.80
3418;DHT22;1722;51.316;12.370;2022-09-20T04:28:45;10.00;99.20
3418;DHT22;1722;51.316;12.370;2022-09-20T04:31:22;10.00;99.20
3418;DHT22;1722;51.316;12.370;2022-09-20T04:33:54;10.00;99.10
3418;DHT22;1722;51.316;12.370;2022-09-20T04:36:52;10.00;99.00
3418;DHT22;1722;51.316;12.370;2022-09-20T04:39:29;9.90;99.00
3418;DHT22;1722;51.316;12.370;2022-09-20T04:42:29;9.90;99.00
3418;DHT22;1722;51.316;12.370;2022-09-20T04:45:15;10.00;99.10
3418;DHT22;1722;51.316;12.370;2022-09-20T05:00:21;9.90;99.30
3418;DHT22;1722;51.316;12.370;2022-09-20T05:03:19;10.10;99.10
3418;DHT22;1722;51.316;12.370;2022-09-20T05:06:05;10.10;98.90
3418;DHT22;1722;51.316;12.370;2022-09-20T05:09:15;9.90;98.90
3418;DHT22;1722;51.316;12.370;2022-09-20T05:11:55;9.90;99.20
3418;DHT22;1722;51.316;12.370;2022-09-20T05:17:37;10.00;99.00
3418;DHT22;1722;51.316;12.370;2022-09-20T05:26:09;10.20;98.80
3418;DHT22;1722;51.316;12.370;2022-09-20T05:28:48;10.30;98.40
3418;DHT22;1722;51.316;12.370;2022-09-20T05:31:23;10.20;98.70
3418;DHT22;1722;51.316;12.370;2022-09-20T05:34:01;10.30;98.60
3418;DHT22;1722;51.316;12.370;2022-09-20T05:36:40;10.30;98.40
3418;DHT22;1722;51.316;12.370;2022-09-20T05:39:21;10.30;98.40
3418;DHT22;1722;51.316;12.370;2022-09-20T05:41:57;10.30;98.30
3418;DHT22;1722;51.316;12.370;2022-09-20T05:44:30;10.40;98.30
3418;DHT22;1722;51.316;12.370;2022-09-20T05:47:05;10.40;98.10
3418;DHT22;1722;51.316;12.370;2022-09-20T05:49:46;10.50;97.90
3418;DHT22;1722;51.316;12.370;2022-09-20T05:52:28;10.60;98.20
3418;DHT22;1722;51.316;12.370;2022-09-20T05:55:45;10.80;97.50
3418;DHT22;1722;51.316;12.370;2022-09-20T05:58:35;10.70;97.60
3418;DHT22;1722;51.316;12.370;2022-09-20T06:01:08;10.70;97.70
3418;DHT22;1722;51.316;12.370;2022-09-20T06:03:41;10.90;97.10
3418;DHT22;1722;51.316;12.370;2022-09-20T06:06:18;11.00;97.00
3418;DHT22;1722;51.316;12.370;2022-09-20T06:09:05;11.10;96.80
3418;DHT22;1722;51.316;12.370;2022-09-20T06:11:51;11.10;96.70
3418;DHT22;1722;51.316;12.370;2022-09-20T06:14:33;11.20;96.60
3418;DHT22;1722;51.316;12.370;2022-09-20T06:17:09;11.20;96.30
3418;DHT22;1722;51.316;12.370;2022-09-20T06:19:43;11.30;96.30
3418;DHT22;1722;51.316;12.370;2022-09-20T06:22:18;11.20;96.20
3418;DHT22;1722;51.316;12.370;2022-09-20T06:24:52;11.30;96.20
3418;DHT22;1722;51.316;12.370;2022-09-20T06:27:25;11.40;96.20
3418;DHT22;1722;51.316;12.370;2022-09-20T06:29:57;11.30;96.10
3418;DHT22;1722;51.316;12.370;2022-09-20T06:32:26;11.30;96.10
3418;DHT22;1722;51.316;12.370;2022-09-20T06:34:53;11.10;96.30
3418;DHT22;1722;51.316;12.370;2022-09-20T06:37:35;11.20;96.60
3418;DHT22;1722;51.316;12.370;2022-09-20T06:40:32;11.20;96.60
3418;DHT22;1722;51.316;12.370;2022-09-20T06:43:20;11.30;96.50
3418;DHT22;1722;51.316;12.370;2022-09-20T06:45:48;11.40;96.30
3418;DHT22;1722;51.316;12.370;2022-09-20T06:48:15;11.50;96.10
3418;DHT22;1722;51.316;12.370;2022-09-20T06:50:44;11.40;96.10
3418;DHT22;1722;51.316;12.370;2022-09-20T06:53:18;11.40;96.30
3418;DHT22;1722;51.316;12.370;2022-09-20T06:55:47;11.50;96.40
3418;DHT22;1722;51.316;12.370;2022-09-20T06:58:15;11.40;96.40
3418;DHT22;1722;51.316;12.370;2022-09-20T07:00:42;11.40;96.30
3418;DHT22;1722;51.316;12.370;2022-09-20T07:03:10;11.50;95.90
3418;DHT22;1722;51.316;12.370;2022-09-20T07:05:38;11.60;95.90
3418;DHT22;1722;51.316;12.370;2022-09-20T07:08:06;11.70;95.80
3418;DHT22;1722;51.316;12.370;2022-09-20T07:10:35;11.60;95.90
3418;DHT22;1722;51.316;12.370;2022-09-20T07:13:02;11.70;95.70
3418;DHT22;1722;51.316;12.370;2022-09-20T07:15:31;11.70;95.60
3418;DHT22;1722;51.316;12.370;2022-09-20T07:17:59;11.60;95.80
3418;DHT22;1722;51.316;12.370;2022-09-20T07:20:27;11.70;96.00
3418;DHT22;1722;51.316;12.370;2022-09-20T07:22:54;11.80;95.70
3418;DHT22;1722;51.316;12.370;2022-09-20T07:25:22;12.00;95.50
3418;DHT22;1722;51.316;12.370;2022-09-20T07:27:51;12.10;95.30
3418;DHT22;1722;51.316;12.370;2022-09-20T07:30:19;12.20;95.40
3418;DHT22;1722;51.316;12.370;2022-09-20T07:32:47;12.20;95.10
3418;DHT22;1722;51.316;12.370;2022-09-20T07:35:15;12.10;95.00
3418;DHT22;1722;51.316;12.370;2022-09-20T07:37:42;12.00;95.20
3418;DHT22;1722;51.316;12.370;2022-09-20T07:40:10;12.10;95.20
3418;DHT22;1722;51.316;12.370;2022-09-20T07:42:39;12.30;94.90
3418;DHT22;1722;51.316;12.370;2022-09-20T07:45:09;12.30;94.80
3418;DHT22;1722;51.316;12.370;2022-09-20T07:47:38;12.30;95.00
3418;DHT22;1722;51.316;12.370;2022-09-20T07:50:08;12.30;94.60
3418;DHT22;1722;51.316;12.370;2022-09-20T07:52:36;12.40;94.60
3418;DHT22;1722;51.316;12.370;2022-09-20T07:55:04;12.50;94.50
3418;DHT22;1722;51.316;12.370;2022-09-20T07:57:34;12.50;94.20
3418;DHT22;1722;51.316;12.370;2022-09-20T08:00:05;12.50;93.60
3418;DHT22;1722;51.316;12.370;2022-09-20T08:02:34;12.40;93.80
3418;DHT22;1722;51.316;12.370;2022-09-20T08:05:03;12.60;93.60
3418;DHT22;1722;51.316;12.370;2022-09-20T08:07:31;12.70;93.40
3418;DHT22;1722;51.316;12.370;2022-09-20T08:09:59;12.70;93.40
3418;DHT22;1722;51.316;12.370;2022-09-20T08:12:27;12.80;93.20
3418;DHT22;1722;51.316;12.370;2022-09-20T08:14:54;12.80;92.60
3418;DHT22;1722;51.316;12.370;2022-09-20T08:17:22;12.90;92.90
3418;DHT22;1722;51.316;12.370;2022-09-20T08:19:50;13.10;92.50
3418;DHT22;1722;51.316;12.370;2022-09-20T08:22:18;13.30;91.40
3418;DHT22;1722;51.316;12.370;2022-09-20T08:24:47;13.30;91.60
3418;DHT22;1722;51.316;12.370;2022-09-20T08:27:15;13.20;91.90
3418;DHT22;1722;51.316;12.370;2022-09-20T08:29:42;13.10;91.90
3418;DHT22;1722;51.316;12.370;2022-09-20T08:32:10;13.30;92.10
3418;DHT22;1722;51.316;12.370;2022-09-20T08:34:37;13.30;91.50
3418;DHT22;1722;51.316;12.370;2022-09-20T08:37:07;13.30;91.60
3418;DHT22;1722;51.316;12.370;2022-09-20T08:39:34;13.40;91.80
3418;DHT22;1722;51.316;12.370;2022-09-20T08:42:09;13.30;91.60
3418;DHT22;1722;51.316;12.370;2022-09-20T08:44:46;13.10;91.80
3418;DHT22;1722;51.316;12.370;2022-09-20T08:47:19;13.20;92.10
3418;DHT22;1722;51.316;12.370;2022-09-20T08:49:48;13.20;92.00
3418;DHT22;1722;51.316;12.370;2022-09-20T08:52:22;13.30;92.10
3418;DHT22;1722;51.316;12.370;2022-09-20T08:54:51;13.40;91.90
3418;DHT22;1722;51.316;12.370;2022-09-20T08:57:19;13.60;91.20
3418;DHT22;1722;51.316;12.370;2022-09-20T08:59:47;13.70;90.90
3418;DHT22;1722;51.316;12.370;2022-09-20T09:02:17;14.00;90.90
3418;DHT22;1722;51.316;12.370;2022-09-20T09:04:45;14.10;90.50
3418;DHT22;1722;51.316;12.370;2022-09-20T09:07:16;14.00;90.20
3418;DHT22;1722;51.316;12.370;2022-09-20T09:09:48;14.00;90.30
3418;DHT22;1722;51.316;12.370;2022-09-20T09:12:20;13.80;90.60
3418;DHT22;1722;51.316;12.370;2022-09-20T09:14:50;13.80;90.70
3418;DHT22;1722;51.316;12.370;2022-09-20T09:17:22;13.80;91.00
3418;DHT22;1722;51.316;12.370;2022-09-20T09:19:51;13.90;91.00
3418;DHT22;1722;51.316;12.370;2022-09-20T09:22:22;14.00;90.90
3418;DHT22;1722;51.316;12.370;2022-09-20T09:25:22;14.10;90.50
3418;DHT22;1722;51.316;12.370;2022-09-20T09:27:55;14.10;91.00
3418;DHT22;1722;51.316;12.370;2022-09-20T09:30:25;14.30;90.20
3418;DHT22;1722;51.316;12.370;2022-09-20T09:33:15;14.60;88.70
3418;DHT22;1722;51.316;12.370;2022-09-20T09:35:43;14.70;86.20
3418;DHT22;1722;51.316;12.370;2022-09-20T09:38:17;14.70;86.90
3418;DHT22;1722;51.316;12.370;2022-09-20T09:40:51;14.60;86.60
3418;DHT22;1722;51.316;12.370;2022-09-20T09:43:20;14.40;87.80
3418;DHT22;1722;51.316;12.370;2022-09-20T09:45:52;14.40;88.10
3418;DHT22;1722;51.316;12.370;2022-09-20T09:48:24;14.60;88.20
3418;DHT22;1722;51.316;12.370;2022-09-20T09:51:08;14.90;86.80
3418;DHT22;1722;51.316;12.370;2022-09-20T09:53:36;15.10;85.10
3418;DHT22;1722;51.316;12.370;2022-09-20T10:02:01;14.60;86.70
3418;DHT22;1722;51.316;12.370;2022-09-20T10:04:35;14.40;87.60
3418;DHT22;1722;51.316;12.370;2022-09-20T10:07:09;14.50;87.00
3418;DHT22;1722;51.316;12.370;2022-09-20T10:09:51;14.60;87.20
3418;DHT22;1722;51.316;12.370;2022-09-20T10:12:37;14.60;85.30
3418;DHT22;1722;51.316;12.370;2022-09-20T10:15:16;14.60;86.50
3418;DHT22;1722;51.316;12.370;2022-09-20T10:17:52;14.60;86.50
3418;DHT22;1722;51.316;12.370;2022-09-20T10:20:33;14.80;86.70
3418;DHT22;1722;51.316;12.370;2022-09-20T10:23:13;15.10;86.80
3418;DHT22;1722;51.316;12.370;2022-09-20T10:25:47;15.40;82.70
3418;DHT22;1722;51.316;12.370;2022-09-20T10:28:30;15.60;83.40
3418;DHT22;1722;51.316;12.370;2022-09-20T10:31:06;15.60;80.30
3418;DHT22;1722;51.316;12.370;2022-09-20T10:33:41;15.80;79.50
3418;DHT22;1722;51.316;12.370;2022-09-20T10:36:17;16.10;79.60
3418;DHT22;1722;51.316;12.370;2022-09-20T10:38:55;16.30;77.50
3418;DHT22;1722;51.316;12.370;2022-09-20T10:41:35;16.40;78.80
3418;DHT22;1722;51.316;12.370;2022-09-20T10:44:39;16.60;81.10
3418;DHT22;1722;51.316;12.370;2022-09-20T10:47:14;17.00;80.00
3418;DHT22;1722;51.316;12.370;2022-09-20T10:49:54;17.30;77.10
3418;DHT22;1722;51.316;12.370;2022-09-20T10:52:41;17.50;75.00
3418;DHT22;1722;51.316;12.370;2022-09-20T10:55:21;17.60;74.40
3418;DHT22;1722;51.316;12.370;2022-09-20T10:58:02;17.60;74.30
3418;DHT22;1722;51.316;12.370;2022-09-20T11:00:39;17.50;74.70
3418;DHT22;1722;51.316;12.370;2022-09-20T11:03:21;17.30;75.20
3418;DHT22;1722;51.316;12.370;2022-09-20T11:06:01;17.00;75.00
3418;DHT22;1722;51.316;12.370;2022-09-20T11:08:33;16.40;80.40
3418;DHT22;1722;51.316;12.370;2022-09-20T11:11:06;15.60;85.70
3418;DHT22;1722;51.316;12.370;2022-09-20T11:13:39;15.10;89.30
3418;DHT22;1722;51.316;12.370;2022-09-20T11:16:14;14.90;91.20
3418;DHT22;1722;51.316;12.370;2022-09-20T11:18:47;15.00;90.90
3418;DHT22;1722;51.316;12.370;2022-09-20T11:21:18;15.00;90.70
3418;DHT22;1722;51.316;12.370;2022-09-20T11:23:53;15.30;91.10
3418;DHT22;1722;51.316;12.370;2022-09-20T11:26:25;15.70;92.00
3418;DHT22;1722;51.316;12.370;2022-09-20T11:28:58;16.90;91.20
3418;DHT22;1722;51.316;12.370;2022-09-20T11:31:34;19.60;87.50
3418;DHT22;1722;51.316;12.370;2022-09-20T11:34:09;23.20;71.30
3418;DHT22;1722;51.316;12.370;2022-09-20T11:36:41;26.40;60.90
3418;DHT22;1722;51.316;12.370;2022-09-20T11:39:17;28.70;50.90
3418;DHT22;1722;51.316;12.370;2022-09-20T11:41:49;31.20;42.60
3418;DHT22;1722;51.316;12.370;2022-09-20T11:44:19;32.10;41.40
3418;DHT22;1722;51.316;12.370;2022-09-20T11:46:53;32.60;38.30
3418;DHT22;1722;51.316;12.370;2022-09-20T11:49:23;30.00;41.90
3418;DHT22;1722;51.316;12.370;2022-09-20T11:52:24;28.70;42.40
3418;DHT22;1722;51.316;12.370;2022-09-20T11:55:08;26.30;46.40
3418;DHT22;1722;51.316;12.370;2022-09-20T11:57:39;24.00;48.90
3418;DHT22;1722;51.316;12.370;2022-09-20T12:00:07;22.70;52.20
3418;DHT22;1722;51.316;12.370;2022-09-20T12:02:43;21.70;55.30
3418;DHT22;1722;51.316;12.370;2022-09-20T12:05:26;21.40;59.20
3418;DHT22;1722;51.316;12.370;2022-09-20T12:07:55;24.80;55.80
3418;DHT22;1722;51.316;12.370;2022-09-20T12:10:26;27.40;44.60
3418;DHT22;1722;51.316;12.370;2022-09-20T12:12:57;28.90;39.20
3418;DHT22;1722;51.316;12.370;2022-09-20T12:15:28;28.60;41.60
3418;DHT22;1722;51.316;12.370;2022-09-20T12:18:13;26.90;45.10
3418;DHT22;1722;51.316;12.370;2022-09-20T12:21:01;24.80;44.80
3418;DHT22;1722;51.316;12.370;2022-09-20T12:23:46;23.00;51.90
3418;DHT22;1722;51.316;12.370;2022-09-20T12:26:39;21.70;56.20
3418;DHT22;1722;51.316;12.370;2022-09-20T12:38:51;37.10;31.90
3418;DHT22;1722;51.316;12.370;2022-09-20T12:41:21;35.60;31.10
3418;DHT22;1722;51.316;12.370;2022-09-20T12:43:55;32.70;31.30
3418;DHT22;1722;51.316;12.370;2022-09-20T12:46:39;29.50;35.60
3418;DHT22;1722;51.316;12.370;2022-09-20T12:52:47;30.00;40.30
3418;DHT22;1722;51.316;12.370;2022-09-20T12:55:30;34.00;36.20
3418;DHT22;1722;51.316;12.370;2022-09-20T12:58:01;36.40;32.50
3418;DHT22;1722;51.316;12.370;2022-09-20T13:00:35;38.20;30.60
3418;DHT22;1722;51.316;12.370;2022-09-20T13:03:22;37.50;30.70
3418;DHT22;1722;51.316;12.370;2022-09-20T13:06:19;38.70;28.50
3418;DHT22;1722;51.316;12.370;2022-09-20T13:08:40;39.30;29.80
3418;DHT22;1722;51.316;12.370;2022-09-20T13:11:14;40.00;27.40
3418;DHT22;1722;51.316;12.370;2022-09-20T13:13:46;39.50;28.30
3418;DHT22;1722;51.316;12.370;2022-09-20T13:16:19;39.60;28.60
3418;DHT22;1722;51.316;12.370;2022-09-20T13:18:55;40.50;27.50
3418;DHT22;1722;51.316;12.370;2022-09-20T13:21:24;40.50;27.00
3418;DHT22;1722;51.316;12.370;2022-09-20T13:23:52;40.50;26.80
3418;DHT22;1722;51.316;12.370;2022-09-20T13:26:25;40.90;26.50
3418;DHT22;1722;51.316;12.370;2022-09-20T13:28:54;40.10;26.80
3418;DHT22;1722;51.316;12.370;2022-09-20T13:31:26;40.80;26.80
3418;DHT22;1722;51.316;12.370;2022-09-20T13:33:58;39.00;27.40
3418;DHT22;1722;51.316;12.370;2022-09-20T13:36:38;38.60;27.50
3418;DHT22;1722;51.316;12.370;2022-09-20T13:39:06;39.60;26.80
3418;DHT22;1722;51.316;12.370;2022-09-20T13:41:36;40.20;26.30
3418;DHT22;1722;51.316;12.370;2022-09-20T13:44:04;40.40;26.10
3418;DHT22;1722;51.316;12.370;2022-09-20T13:46:32;40.20;26.60
3418;DHT22;1722;51.316;12.370;2022-09-20T13:49:13;40.60;26.10
3418;DHT22;1722;51.316;12.370;2022-09-20T13:51:43;40.80;25.80
3418;DHT22;1722;51.316;12.370;2022-09-20T13:54:18;40.70;25.60
3418;DHT22;1722;51.316;12.370;2022-09-20T13:56:48;40.70;25.90
3418;DHT22;1722;51.316;12.370;2022-09-20T13:59:16;40.80;25.20
3418;DHT22;1722;51.316;12.370;2022-09-20T14:01:48;40.80;24.70
3418;DHT22;1722;51.316;12.370;2022-09-20T14:04:19;40.60;25.10
3418;DHT22;1722;51.316;12.370;2022-09-20T14:06:47;40.50;25.50
3418;DHT22;1722;51.316;12.370;2022-09-20T14:09:20;39.20;25.50
3418;DHT22;1722;51.316;12.370;2022-09-20T14:11:51;38.40;27.20
3418;DHT22;1722;51.316;12.370;2022-09-20T14:14:20;37.30;26.90
3418;DHT22;1722;51.316;12.370;2022-09-20T14:16:49;35.20;27.50
3418;DHT22;1722;51.316;12.370;2022-09-20T14:19:19;33.30;30.00
3418;DHT22;1722;51.316;12.370;2022-09-20T14:21:47;33.10;30.50
3418;DHT22;1722;51.316;12.370;2022-09-20T14:24:27;33.40;30.00
3418;DHT22;1722;51.316;12.370;2022-09-20T14:27:16;32.50;30.00
3418;DHT22;1722;51.316;12.370;2022-09-20T14:29:45;30.80;32.70
3418;DHT22;1722;51.316;12.370;2022-09-20T14:35:15;28.50;34.70
3418;DHT22;1722;51.316;12.370;2022-09-20T14:37:46;26.90;36.50
3418;DHT22;1722;51.316;12.370;2022-09-20T14:40:25;25.70;40.20
3418;DHT22;1722;51.316;12.370;2022-09-20T14:42:56;24.80;40.70
3418;DHT22;1722;51.316;12.370;2022-09-20T14:45:28;24.00;39.50
3418;DHT22;1722;51.316;12.370;2022-09-20T14:47:58;23.80;41.90
3418;DHT22;1722;51.316;12.370;2022-09-20T14:50:29;23.70;43.80
3418;DHT22;1722;51.316;12.370;2022-09-20T14:53:24;23.60;41.40
3418;DHT22;1722;51.316;12.370;2022-09-20T14:55:58;23.30;43.00
3418;DHT22;1722;51.316;12.370;2022-09-20T14:58:27;23.30;44.50
3418;DHT22;1722;51.316;12.370;2022-09-20T15:00:57;23.50;45.00
3418;DHT22;1722;51.316;12.370;2022-09-20T15:03:29;23.60;43.40
3418;DHT22;1722;51.316;12.370;2022-09-20T15:05:57;23.30;44.50
3418;DHT22;1722;51.316;12.370;2022-09-20T15:08:25;22.90;43.70
3418;DHT22;1722;51.316;12.370;2022-09-20T15:10:53;22.40;44.10
3418;DHT22;1722;51.316;12.370;2022-09-20T15:13:20;22.00;43.40
3418;DHT22;1722;51.316;12.370;2022-09-20T15:15:51;22.00;45.80
3418;DHT22;1722;51.316;12.370;2022-09-20T15:18:21;21.90;44.60
3418;DHT22;1722;51.316;12.370;2022-09-20T15:20:49;21.90;46.00
3418;DHT22;1722;51.316;12.370;2022-09-20T15:23:17;22.00;45.70
3418;DHT22;1722;51.316;12.370;2022-09-20T15:25:44;22.10;44.30
3418;DHT22;1722;51.316;12.370;2022-09-20T15:28:13;22.00;44.10
3418;DHT22;1722;51.316;12.370;2022-09-20T15:30:42;22.00;45.50
3418;DHT22;1722;51.316;12.370;2022-09-20T15:33:11;22.00;45.00
3418;DHT22;1722;51.316;12.370;2022-09-20T15:35:40;22.00;45.30
3418;DHT22;1722;51.316;12.370;2022-09-20T15:38:09;21.90;43.50
3418;DHT22;1722;51.316;12.370;2022-09-20T15:40:38;21.60;45.00
3418;DHT22;1722;51.316;12.370;2022-09-20T15:43:05;21.50;44.90
3418;DHT22;1722;51.316;12.370;2022-09-20T15:45:33;21.20;45.10
3418;DHT22;1722;51.316;12.370;2022-09-20T15:48:01;21.10;45.70
3418;DHT22;1722;51.316;12.370;2022-09-20T15:50:30;21.00;44.60
3418;DHT22;1722;51.316;12.370;2022-09-20T15:52:58;21.00;45.10
3418;DHT22;1722;51.316;12.370;2022-09-20T15:55:25;20.90;46.40
3418;DHT22;1722;51.316;12.370;2022-09-20T15:57:53;20.90;47.30
3418;DHT22;1722;51.316;12.370;2022-09-20T16:00:20;20.90;48.30
3418;DHT22;1722;51.316;12.370;2022-09-20T16:02:48;20.90;46.40
3418;DHT22;1722;51.316;12.370;2022-09-20T16:05:16;20.90;48.90
3418;DHT22;1722;51.316;12.370;2022-09-20T16:07:44;20.90;46.50
3418;DHT22;1722;51.316;12.370;2022-09-20T16:10:12;20.90;48.50
3418;DHT22;1722;51.316;12.370;2022-09-20T16:12:39;20.80;49.10
3418;DHT22;1722;51.316;12.370;2022-09-20T16:15:08;20.70;48.60
3418;DHT22;1722;51.316;12.370;2022-09-20T16:17:36;20.60;48.20
3418;DHT22;1722;51.316;12.370;2022-09-20T16:20:21;20.40;48.60
3418;DHT22;1722;51.316;12.370;2022-09-20T16:22:50;20.40;51.10
3418;DHT22;1722;51.316;12.370;2022-09-20T16:25:17;20.30;49.50
3418;DHT22;1722;51.316;12.370;2022-09-20T16:27:44;20.30;51.30
3418;DHT22;1722;51.316;12.370;2022-09-20T16:30:12;20.20;51.90
3418;DHT22;1722;51.316;12.370;2022-09-20T16:32:40;20.10;50.20
3418;DHT22;1722;51.316;12.370;2022-09-20T16:35:08;20.00;52.10
3418;DHT22;1722;51.316;12.370;2022-09-20T16:37:36;19.90;52.70
3418;DHT22;1722;51.316;12.370;2022-09-20T16:40:07;19.90;51.40
3418;DHT22;1722;51.316;12.370;2022-09-20T16:42:35;19.90;52.40
3418;DHT22;1722;51.316;12.370;2022-09-20T16:45:05;19.70;52.00
3418;DHT22;1722;51.316;12.370;2022-09-20T16:47:32;19.60;51.90
3418;DHT22;1722;51.316;12.370;2022-09-20T16:50:03;19.50;52.90
3418;DHT22;1722;51.316;12.370;2022-09-20T16:52:30;19.40;53.40
3418;DHT22;1722;51.316;12.370;2022-09-20T16:54:58;19.30;54.30
3418;DHT22;1722;51.316;12.370;2022-09-20T16:57:27;19.20;53.30
3418;DHT22;1722;51.316;12.370;2022-09-20T16:59:54;19.10;53.60
3418;DHT22;1722;51.316;12.370;2022-09-20T17:02:21;18.80;54.90
3418;DHT22;1722;51.316;12.370;2022-09-20T17:04:49;18.70;54.90
3418;DHT22;1722;51.316;12.370;2022-09-20T17:07:17;18.60;54.60
3418;DHT22;1722;51.316;12.370;2022-09-20T17:09:47;18.50;54.40
3418;DHT22;1722;51.316;12.370;2022-09-20T17:12:15;18.20;54.60
3418;DHT22;1722;51.316;12.370;2022-09-20T17:14:48;18.00;55.30
3418;DHT22;1722;51.316;12.370;2022-09-20T17:17:15;17.80;56.50
3418;DHT22;1722;51.316;12.370;2022-09-20T17:19:43;17.60;56.90
3418;DHT22;1722;51.316;12.370;2022-09-20T17:22:10;17.30;57.90
3418;DHT22;1722;51.316;12.370;2022-09-20T17:24:38;17.20;58.40
3418;DHT22;1722;51.316;12.370;2022-09-20T17:27:05;17.00;58.00
3418;DHT22;1722;51.316;12.370;2022-09-20T17:29:33;16.80;59.50